| time (UTC) | temp C | wind direction | speed KPH | gust KPH | rain 1hr cm | rain 24hr cm | rain mn cm | humidity % | barometer mb |
| 20260505032445 | 33 | 22 | 3.2 | 3.2 | 0.00 | 0.00 | 0.00 | 61 | 999.0 |
| 20260505031945 | 33 | 22 | 0.0 | 3.2 | 0.00 | 0.00 | 0.00 | 62 | 999.0 |
| 20260505031447 | 33 | 0 | 0.0 | 3.2 | 0.00 | 0.00 | 0.00 | 63 | 999.2 |
| 20260505030445 | 33 | 90 | 0.0 | 6.4 | 0.00 | 0.00 | 0.00 | 63 | 999.3 |
| 20260505025945 | 32 | 90 | 0.0 | 9.7 | 0.00 | 0.00 | 0.00 | 64 | 999.4 |
| 20260505025445 | 32 | 0 | 0.0 | 1.6 | 0.00 | 0.00 | 0.00 | 65 | 999.5 |
| 20260505024846 | 32 | 0 | 0.0 | 6.4 | 0.00 | 0.00 | 0.00 | 65 | 999.6 |
| 20260505024345 | 32 | 0 | 0.0 | 6.4 | 0.00 | 0.00 | 0.00 | 66 | 999.5 |
| 20260505023344 | 32 | 0 | 0.0 | 1.6 | 0.00 | 0.00 | 0.00 | 66 | 999.4 |
| 20260505022844 | 32 | 0 | 9.7 | 9.7 | 0.00 | 0.00 | 0.00 | 66 | 999.4 |
| 20260505022346 | 32 | 22 | 3.2 | 4.8 | 0.00 | 0.00 | 0.00 | 67 | 999.4 |
| 20260505021844 | 31 | 22 | 0.0 | 4.8 | 0.00 | 0.00 | 0.00 | 67 | 999.4 |
| 20260505020844 | 31 | 292 | 0.0 | 8.0 | 0.00 | 0.00 | 0.00 | 69 | 999.3 |
| 20260505020344 | 31 | 292 | 3.2 | 9.7 | 0.00 | 0.00 | 0.00 | 69 | 999.4 |
| 20260505015846 | 31 | 90 | 4.8 | 6.4 | 0.00 | 0.00 | 0.00 | 70 | 999.4 |
| 20260505015344 | 31 | 0 | 3.2 | 16.1 | 0.00 | 0.00 | 0.00 | 71 | 999.3 |
| 20260505014244 | 30 | 22 | 0.0 | 9.7 | 0.00 | 0.00 | 0.00 | 71 | 999.3 |
| 20260505013844 | 30 | 22 | 0.0 | 6.4 | 0.00 | 0.00 | 0.00 | 71 | 999.2 |
| 20260505013804 | 30 | 22 | 6.4 | 6.4 | 0.00 | 0.00 | 0.00 | 71 | 999.2 |
| 20260505013609 | 30 | 22 | 0.0 | 3.2 | 0.00 | 0.00 | 0.00 | 72 | 999.3 |
| 20260505013109 | 30 | 22 | 0.0 | 4.8 | 0.00 | 0.00 | 0.00 | 72 | 999.1 |
| 20260505012109 | 30 | 22 | 3.2 | 8.0 | 0.00 | 0.00 | 0.00 | 73 | 999.0 |
| 20260505011610 | 30 | 90 | 0.0 | 6.4 | 0.00 | 0.00 | 0.00 | 74 | 999.1 |
| 20260505010608 | 29 | 0 | 0.0 | 0.0 | 0.00 | 0.00 | 0.00 | 74 | 999.1 |
| 20260505005608 | 28 | 22 | 6.4 | 6.4 | 0.00 | 0.00 | 0.00 | 75 | 998.7 |
| 20260505005147 | 28 | 0 | 6.4 | 6.4 | 0.00 | 0.00 | 0.00 | 76 | 998.6 |
| 20260505004108 | 27 | 0 | 3.2 | 3.2 | 0.00 | 0.00 | 0.00 | 77 | 998.8 |
| 20260505003608 | 27 | 0 | 3.2 | 8.0 | 0.00 | 0.00 | 0.00 | 78 | 999.0 |
| 20260505003109 | 27 | 0 | 0.0 | 0.0 | 0.00 | 0.00 | 0.00 | 78 | 999.1 |
| 20260505002610 | 26 | 292 | 0.0 | 0.0 | 0.00 | 0.00 | 0.00 | 78 | 999.2 |
| 20260505002108 | 26 | 90 | 0.0 | 0.0 | 0.00 | 0.00 | 0.00 | 79 | 999.1 |
| 20260505001608 | 26 | 90 | 0.0 | 1.6 | 0.00 | 0.00 | 0.00 | 79 | 999.1 |
| 20260505000608 | 26 | 22 | 0.0 | 0.0 | 0.00 | 0.00 | 0.00 | 79 | 998.8 |
| 20260505000110 | 26 | 22 | 0.0 | 0.0 | 0.00 | 0.00 | 0.00 | 79 | 998.7 |
| 20260504235608 | 26 | 0 | 0.0 | 0.0 | 0.00 | 0.00 | 0.00 | 79 | 998.7 |
| 20260504235156 | 26 | 22 | 0.0 | 0.0 | 0.00 | 0.00 | 0.00 | 80 | 998.6 |
| 20260504234608 | 26 | 0 | 3.2 | 3.2 | 0.00 | 0.00 | 0.00 | 80 | 998.5 |
| 20260504234108 | 26 | 22 | 0.0 | 0.0 | 0.00 | 0.00 | 0.00 | 80 | 998.3 |
| 20260504233609 | 26 | 90 | 0.0 | 0.0 | 0.00 | 0.00 | 0.00 | 80 | 998.2 |
| 20260504232607 | 25 | 90 | 0.0 | 0.0 | 0.00 | 0.00 | 0.00 | 80 | 997.7 |
| 20260504232107 | 25 | 90 | 0.0 | 0.0 | 0.00 | 0.00 | 0.00 | 80 | 997.7 |
| 20260504231607 | 25 | 22 | 0.0 | 0.0 | 0.00 | 0.00 | 0.00 | 80 | 997.7 |
| 20260504231109 | 25 | 90 | 0.0 | 0.0 | 0.00 | 0.00 | 0.00 | 80 | 997.6 |
| 20260504230608 | 25 | 0 | 0.0 | 0.0 | 0.00 | 0.00 | 0.00 | 80 | 997.2 |
| 20260504230107 | 25 | 22 | 0.0 | 0.0 | 0.00 | 0.00 | 0.00 | 80 | 997.1 |
| 20260504225107 | 25 | 22 | 0.0 | 3.2 | 0.00 | 0.00 | 0.00 | 80 | 996.8 |
| 20260504224609 | 25 | 22 | 0.0 | 0.0 | 0.00 | 0.00 | 0.00 | 80 | 996.7 |
| 20260504224107 | 25 | 22 | 0.0 | 0.0 | 0.00 | 0.00 | 0.00 | 80 | 996.6 |
| 20260504223107 | 26 | 22 | 3.2 | 6.4 | 0.00 | 0.00 | 0.00 | 79 | 996.3 |
| 20260504222607 | 26 | 292 | 3.2 | 3.2 | 0.00 | 0.00 | 0.00 | 79 | 996.3 |
| 20260504222109 | 26 | 292 | 0.0 | 0.0 | 0.00 | 0.00 | 0.00 | 79 | 996.4 |
| 20260504221607 | 26 | 22 | 0.0 | 4.8 | 0.00 | 0.00 | 0.00 | 79 | 996.5 |
| 20260504221107 | 26 | 0 | 0.0 | 0.0 | 0.00 | 0.00 | 0.00 | 78 | 996.4 |
| 20260504220107 | 26 | 0 | 3.2 | 3.2 | 0.00 | 0.00 | 0.00 | 78 | 996.6 |
| 20260504215608 | 26 | 90 | 0.0 | 0.0 | 0.00 | 0.00 | 0.00 | 78 | 996.7 |
| 20260504215107 | 26 | 0 | 0.0 | 0.0 | 0.00 | 0.00 | 0.00 | 77 | 996.7 |
| 20260504214606 | 26 | 292 | 3.2 | 3.2 | 0.00 | 0.00 | 0.00 | 77 | 996.7 |
| 20260504214106 | 26 | 0 | 0.0 | 3.2 | 0.00 | 0.00 | 0.00 | 77 | 997.0 |
| 20260504213606 | 26 | 292 | 0.0 | 0.0 | 0.00 | 0.00 | 0.00 | 77 | 997.0 |
| 20260504213113 | 26 | 292 | 0.0 | 0.0 | 0.00 | 0.00 | 0.00 | 77 | 996.9 |
| 20260504212606 | 26 | 292 | 0.0 | 0.0 | 0.00 | 0.00 | 0.00 | 77 | 997.1 |
| 20260504212106 | 26 | 292 | 0.0 | 0.0 | 0.00 | 0.00 | 0.00 | 77 | 997.2 |
| 20260504211106 | 26 | 292 | 0.0 | 0.0 | 0.00 | 0.00 | 0.00 | 77 | 997.3 |
| 20260504210608 | 26 | 0 | 0.0 | 0.0 | 0.00 | 0.00 | 0.00 | 77 | 997.3 |
| 20260504210106 | 26 | 292 | 0.0 | 0.0 | 0.00 | 0.00 | 0.00 | 77 | 997.6 |
| 20260504205606 | 26 | 0 | 0.0 | 0.0 | 0.00 | 0.00 | 0.00 | 78 | 997.7 |
| 20260504204606 | 26 | 22 | 17.7 | 17.7 | 0.00 | 0.00 | 0.00 | 78 | 997.7 |
| 20260504204108 | 26 | 0 | 0.0 | 0.0 | 0.00 | 0.00 | 0.00 | 78 | 997.7 |
| 20260504203606 | 26 | 22 | 0.0 | 0.0 | 0.00 | 0.00 | 0.00 | 78 | 997.9 |
| 20260504202606 | 26 | 22 | 0.0 | 0.0 | 0.00 | 0.00 | 0.00 | 78 | 998.0 |
| 20260504202106 | 25 | 22 | 0.0 | 0.0 | 0.00 | 0.00 | 0.00 | 78 | 998.0 |
| 20260504201607 | 25 | 22 | 0.0 | 0.0 | 0.00 | 0.00 | 0.00 | 78 | 998.0 |
| 20260504201106 | 25 | 90 | 0.0 | 0.0 | 0.00 | 0.00 | 0.00 | 79 | 998.2 |
| 20260504200605 | 25 | 90 | 0.0 | 0.0 | 0.00 | 0.00 | 0.00 | 79 | 998.2 |
| 20260504195605 | 25 | 90 | 0.0 | 4.8 | 0.00 | 0.00 | 0.00 | 79 | 997.9 |
| 20260504195107 | 25 | 90 | 0.0 | 4.8 | 0.00 | 0.00 | 0.00 | 79 | 998.3 |
| 20260504194605 | 25 | 22 | 3.2 | 4.8 | 0.00 | 0.00 | 0.00 | 79 | 998.3 |
| 20260504193605 | 25 | 90 | 0.0 | 3.2 | 0.00 | 0.00 | 0.00 | 80 | 998.6 |
| 20260504193106 | 25 | 22 | 0.0 | 3.2 | 0.00 | 0.00 | 0.00 | 80 | 998.6 |
| 20260504192607 | 25 | 90 | 0.0 | 4.8 | 0.00 | 0.00 | 0.00 | 80 | 998.8 |
| 20260504191605 | 26 | 90 | 6.4 | 9.7 | 0.00 | 0.00 | 0.00 | 80 | 998.8 |
| 20260504190605 | 26 | 22 | 0.0 | 6.4 | 0.00 | 0.00 | 0.00 | 79 | 998.5 |
| 20260504190107 | 26 | 90 | 0.0 | 4.8 | 0.00 | 0.00 | 0.00 | 79 | 998.4 |
| 20260504185105 | 26 | 90 | 0.0 | 0.0 | 0.00 | 0.00 | 0.00 | 79 | 998.0 |
| 20260504184105 | 26 | 90 | 0.0 | 3.2 | 0.00 | 0.00 | 0.00 | 79 | 997.9 |
| 20260504183606 | 26 | 90 | 3.2 | 14.5 | 0.00 | 0.00 | 0.00 | 79 | 997.8 |
| 20260504182604 | 26 | 22 | 8.0 | 8.0 | 0.00 | 0.00 | 0.00 | 79 | 997.9 |
| 20260504181604 | 26 | 90 | 8.0 | 8.0 | 0.00 | 0.00 | 0.00 | 78 | 998.3 |
| 20260504181106 | 26 | 90 | 0.0 | 14.5 | 0.00 | 0.00 | 0.00 | 78 | 998.4 |
| 20260504180604 | 26 | 90 | 0.0 | 6.4 | 0.00 | 0.00 | 0.00 | 78 | 998.5 |
| 20260504180104 | 26 | 90 | 3.2 | 12.9 | 0.00 | 0.00 | 0.00 | 78 | 998.8 |
| 20260504175104 | 26 | 90 | 9.7 | 16.1 | 0.00 | 0.00 | 0.00 | 77 | 999.1 |
| 20260504174606 | 26 | 22 | 0.0 | 14.5 | 0.00 | 0.00 | 0.00 | 78 | 999.1 |
| 20260504174104 | 27 | 22 | 1.6 | 12.9 | 0.00 | 0.00 | 0.00 | 78 | 999.1 |
| 20260504173104 | 27 | 0 | 1.6 | 19.3 | 0.00 | 0.00 | 0.00 | 77 | 999.5 |
| 20260504172604 | 27 | 90 | 6.4 | 11.3 | 0.00 | 0.00 | 0.00 | 77 | 999.5 |
| 20260504172106 | 27 | 22 | 11.3 | 16.1 | 0.00 | 0.00 | 0.00 | 76 | 999.5 |
| 20260504171604 | 27 | 22 | 14.5 | 17.7 | 0.00 | 0.00 | 0.00 | 77 | 999.4 |
| 20260504171104 | 27 | 22 | 0.0 | 19.3 | 0.00 | 0.00 | 0.00 | 77 | 999.4 |
| 20260504170104 | 28 | 90 | 14.5 | 14.5 | 0.00 | 0.00 | 0.00 | 77 | 999.6 |
| 20260504150602 | 28 | 22 | 0.0 | 0.0 | 0.00 | 0.00 | 0.00 | 74 | 998.7 |
| 20260504141103 | 28 | 90 | 0.0 | 0.0 | 0.00 | 0.00 | 0.00 | 72 | 998.3 |
| 20260504140602 | 28 | 22 | 0.0 | 0.0 | 0.00 | 0.00 | 0.00 | 72 | 998.3 |
| 20260504140104 | 28 | 90 | 0.0 | 0.0 | 0.00 | 0.00 | 0.00 | 72 | 998.1 |
| 20260504130703 | 29 | 90 | 0.0 | 0.0 | 0.00 | 0.00 | 0.00 | 71 | 996.7 |
| 20260504130218 | 29 | 90 | 0.0 | 0.0 | 0.00 | 0.00 | 0.00 | 71 | 996.6 |
| 20260504120217 | 29 | 22 | 0.0 | 0.0 | 0.00 | 0.00 | 0.00 | 73 | 995.7 |
| 20260504110719 | 29 | 90 | 0.0 | 9.7 | 0.00 | 0.00 | 0.00 | 74 | 995.2 |
| 20260504081715 | 37 | 0 | 0.0 | 16.1 | 0.00 | 0.00 | 0.00 | 49 | 993.6 |
| 20260504081217 | 38 | 22 | 6.4 | 12.9 | 0.00 | 0.00 | 0.00 | 49 | 993.6 |
| 20260504080215 | 38 | 22 | 4.8 | 9.7 | 0.00 | 0.00 | 0.00 | 49 | 993.7 |
| 20260504070214 | 40 | 0 | 0.0 | 8.0 | 0.00 | 0.00 | 0.00 | 48 | 994.4 |
| 20260504050713 | 37 | 22 | 0.0 | 8.0 | 0.00 | 0.00 | 0.00 | 53 | 997.4 |
| 20260504045713 | 37 | 22 | 0.0 | 6.4 | 0.00 | 0.00 | 0.00 | 53 | 997.3 |
| 20260504045215 | 37 | 22 | 1.6 | 12.9 | 0.00 | 0.00 | 0.00 | 54 | 997.4 |
| 20260504044713 | 37 | 22 | 0.0 | 0.0 | 0.00 | 0.00 | 0.00 | 54 | 997.3 |
| 20260504044213 | 36 | 22 | 0.0 | 0.0 | 0.00 | 0.00 | 0.00 | 55 | 997.5 |
| 20260504043713 | 36 | 22 | 0.0 | 3.2 | 0.00 | 0.00 | 0.00 | 55 | 997.6 |
| 20260504043213 | 36 | 22 | 0.0 | 4.8 | 0.00 | 0.00 | 0.00 | 55 | 997.5 |
| 20260504042715 | 36 | 22 | 0.0 | 1.6 | 0.00 | 0.00 | 0.00 | 56 | 997.7 |
| 20260504041713 | 36 | 22 | 0.0 | 6.4 | 0.00 | 0.00 | 0.00 | 56 | 997.7 |
| 20260504041213 | 36 | 90 | 12.9 | 12.9 | 0.00 | 0.00 | 0.00 | 56 | 997.8 |
| 20260504040713 | 36 | 22 | 0.0 | 6.4 | 0.00 | 0.00 | 0.00 | 57 | 997.7 |
| 20260504035712 | 36 | 22 | 0.0 | 8.0 | 0.00 | 0.00 | 0.00 | 57 | 998.0 |
| 20260504035212 | 36 | 22 | 0.0 | 0.0 | 0.00 | 0.00 | 0.00 | 58 | 998.0 |
| 20260504034212 | 36 | 22 | 0.0 | 3.2 | 0.00 | 0.00 | 0.00 | 58 | 998.2 |
| 20260504033714 | 36 | 22 | 0.0 | 0.0 | 0.00 | 0.00 | 0.00 | 59 | 998.2 |
| 20260504033212 | 35 | 22 | 0.0 | 3.2 | 0.00 | 0.00 | 0.00 | 59 | 998.0 |